Luliang Air Base

CN-0041 · Yunnan, Chiny

Historia METAR CN-0041 · Luliang Air Base

Poniżej widzisz METAR-y z ostatnich kilku dni. Wybierz rok, aby przeglądać starsze METAR-y, począwszy od roku 2007.

15 lipca 2024

Czas Kod Pogoda Temp. Widoczność Sufit Wiatr METAR/SPECI
19:00
V
23 °C 10 km+ 4.000 ft 210° 210° 7 kt METAR ZPPP 151100Z 21004MPS 9999 FEW026TCU SCT026 BKN040 23/17 Q1019 NOSIG
18:00
V
23 °C 10 km+ - 180° 180° 3 kt METAR ZPPP 151000Z 18002MPS 140V210 9999 FEW026TCU SCT026 SCT040 23/17 Q1018 NOSIG
17:00
V
23 °C 10 km+ - 200° 200° 7 kt METAR ZPPP 150900Z 20004MPS 150V220 9999 FEW026TCU SCT026 SCT040 23/17 Q1019 NOSIG
16:00
V
21 °C 10 km+ 4.000 ft 210° 210° 5 kt METAR ZPPP 150800Z 21003MPS 9999 -SHRA FEW026TCU SCT026 BKN040 21/17 Q1019 NOSIG
15:00
V
21 °C 10 km+ 4.000 ft 190° 190° 7 kt METAR ZPPP 150700Z 19004MPS 150V220 9999 -SHRA FEW026TCU SCT026 BKN040 21/17 Q1020 NOSIG
14:00
V
23 °C 10 km+ - 170° 170° 7 kt METAR ZPPP 150600Z 17004MPS 140V220 9999 FEW026TCU SCT026 SCT040 23/18 Q1020 NOSIG
13:00
V
22 °C 10 km+ 3.600 ft 220° 220° 9 kt METAR ZPPP 150500Z 22005MPS 9999 SCT020 BKN036 22/17 Q1021 NOSIG
12:00
V
22 °C 10 km+ 3.600 ft 190° 190° 5 kt METAR ZPPP 150400Z 19003MPS 140V230 9999 SCT020 BKN036 22/16 Q1022 NOSIG
11:00
V
21 °C 10 km+ 3.600 ft 190° 190° 9 kt METAR ZPPP 150300Z 19005MPS 140V220 9999 SCT020 BKN036 21/17 Q1022 NOSIG
10:00
V
21 °C 10 km+ 3.600 ft 170° 170° 7 kt METAR ZPPP 150200Z 17004MPS 130V210 9999 SCT020 BKN036 21/17 Q1022 NOSIG
09:00
V
20 °C 10 km+ 3.600 ft 200° 200° 5 kt METAR ZPPP 150100Z 20003MPS 130V220 9999 SCT016 BKN036 20/16 Q1021 NOSIG
08:00
V
19 °C 10 km+ 3.600 ft 210° 210° 5 kt METAR ZPPP 150000Z 21003MPS 9999 SCT016 BKN036 19/17 Q1021 NOSIG
07:00
V
18 °C 10 km+ 4.600 ft 220° 220° 5 kt METAR ZPPP 142300Z 22003MPS 9999 SCT020 BKN046 18/17 Q1021 NOSIG
06:00
V
18 °C 10 km+ 4.600 ft 200° 200° 7 kt METAR ZPPP 142200Z 20004MPS 9999 SCT020 BKN046 18/16 Q1020 NOSIG
05:00
V
18 °C 10 km+ 4.600 ft 180° 180° 5 kt METAR ZPPP 142100Z 18003MPS 140V210 9999 FEW020TCU SCT020 BKN046 18/16 Q1020 NOSIG
04:00
V
18 °C 10 km+ 4.600 ft 220° 220° 7 kt METAR ZPPP 142000Z 22004MPS 9999 FEW020TCU SCT020 BKN046 18/17 Q1020 RESHRA NOSIG
03:00
V
18 °C 8 km 4.600 ft 210° 210° 7 kt METAR ZPPP 141900Z 21004MPS 8000 SHRA FEW020TCU SCT020 BKN046 18/17 Q1020 BECMG TL1920 NSW
02:00
V
18 °C 10 km+ 4.000 ft 210° 210° 7 kt METAR ZPPP 141800Z 21004MPS 9999 -SHRA SCT023 BKN040 18/17 Q1020 NOSIG
01:00
V
20 °C 10 km+ 4.600 ft 180° 180° 7 kt METAR ZPPP 141700Z 18004MPS 140V210 9999 SCT023 BKN046 20/16 Q1020 NOSIG
00:00
V
20 °C 10 km+ 4.600 ft 180° 180° 7 kt METAR ZPPP 141600Z 18004MPS 120V210 9999 SCT023 BKN046 20/17 Q1020 NOSIG

14 lipca 2024

Czas Kod Pogoda Temp. Widoczność Sufit Wiatr METAR/SPECI
23:00
V
20 °C 10 km+ 4.600 ft 180° 180° 9 kt METAR ZPPP 141500Z 18005MPS 140V200 9999 SCT023 BKN046 20/17 Q1020 NOSIG
22:00
V
21 °C 10 km+ 4.600 ft 180° 180° 5 kt METAR ZPPP 141400Z 18003MPS 140V210 9999 SCT023 BKN046 21/17 Q1019 NOSIG
21:00
V
21 °C 10 km+ 3.600 ft 180° 180° 7 kt METAR ZPPP 141300Z 18004MPS 130V210 9999 SCT023 BKN036 21/17 Q1018 NOSIG
20:00
V
21 °C 10 km+ 3.600 ft 180° 180° 5 kt METAR ZPPP 141200Z 18003MPS 140V220 9999 FEW023TCU SCT023 BKN036 21/17 Q1017 NOSIG
19:00
V
22 °C 10 km+ 3.600 ft 200° 200° 9 kt METAR ZPPP 141100Z 20005MPS 160V220 9999 SCT020 FEW023TCU BKN036 22/17 Q1016 NOSIG
18:00
V
23 °C 10 km+ 3.600 ft 190° 190° 9 kt METAR ZPPP 141000Z 19005MPS 150V210 9999 FEW020TCU SCT020 BKN036 23/17 Q1016 NOSIG
17:00
V
23 °C 10 km+ 3.600 ft 190° 190° 7 kt METAR ZPPP 140900Z 19004MPS 130V230 9999 FEW020TCU SCT020 BKN036 23/17 Q1015 NOSIG
16:00
V
24 °C 10 km+ 3.600 ft 180° 180° 9 kt METAR ZPPP 140800Z 18005MPS 140V210 9999 -SHRA FEW020TCU SCT020 BKN036 24/17 Q1016 NOSIG
15:00
V
25 °C 10 km+ 4.600 ft 250° 250° 11 kt METAR ZPPP 140700Z 25006MPS 9999 FEW026TCU SCT026 BKN046 25/17 Q1016 NOSIG
14:00
V
24 °C 10 km+ 4.600 ft 230° 230° 9 kt METAR ZPPP 140600Z 23005MPS 200V260 9999 FEW026TCU SCT026 BKN046 24/18 Q1017 NOSIG
13:00
V
21 °C 10 km+ 3.600 ft 230° 230° 11 kt METAR ZPPP 140500Z 23006MPS 9999 -SHRA SCT026 BKN036 21/17 Q1017 NOSIG
12:00
V
22 °C 10 km+ 3.600 ft 200° 200° 9 kt METAR ZPPP 140400Z 20005MPS 160V230 9999 SCT026 BKN036 22/16 Q1018 NOSIG
11:00
V
21 °C 10 km+ 3.600 ft 190° 190° 7 kt METAR ZPPP 140300Z 19004MPS 140V230 9999 SCT020 BKN036 21/17 Q1018 NOSIG
10:00
V
21 °C 10 km+ 3.600 ft 200° 200° 11 kt METAR ZPPP 140200Z 20006MPS 9999 SCT020 BKN036 21/17 Q1018 NOSIG
09:00
V
20 °C 10 km+ 3.600 ft 200° 200° 11 kt METAR ZPPP 140100Z 20006MPS 9999 FEW020TCU SCT020 BKN036 20/17 Q1017 NOSIG
08:00
V
19 °C 10 km+ 3.600 ft 200° 200° 7 kt METAR ZPPP 140000Z 20004MPS 9999 FEW020TCU SCT020 BKN036 19/17 Q1017 NOSIG
07:00
V
19 °C 10 km+ 3.600 ft 210° 210° 9 kt METAR ZPPP 132300Z 21005MPS 9999 FEW020TCU SCT020 BKN036 19/17 Q1016 NOSIG
06:00
V
19 °C 10 km+ 3.600 ft 200° 200° 9 kt METAR ZPPP 132200Z 20005MPS 9999 FEW020TCU FEW020 BKN036 19/17 Q1015 NOSIG
05:00
V
19 °C 10 km+ 3.600 ft 200° 200° 11 kt METAR ZPPP 132100Z 20006MPS 9999 -SHRA FEW020CB FEW020 BKN036 19/17 Q1015 NOSIG
04:00
V
19 °C 10 km+ 3.600 ft 210° 210° 11 kt METAR ZPPP 132000Z 21006MPS 9999 -SHRA FEW020CB FEW020 BKN036 19/17 Q1015 RETS NOSIG
03:00
V
20 °C 10 km+ 3.600 ft 200° 200° 11 kt METAR ZPPP 131900Z 20006MPS 9999 TS FEW020CB FEW020 BKN036 20/17 Q1015 BECMG TL1930 NSW
02:00
V
20 °C 10 km+ 3.600 ft 190° 190° 5 kt METAR ZPPP 131800Z 19003MPS 9999 SCT020 BKN036 20/17 Q1015 NOSIG
01:00
V
20 °C 10 km+ 4.300 ft 200° 200° 7 kt METAR ZPPP 131700Z 20004MPS 9999 SCT020 BKN043 20/17 Q1015 NOSIG
00:00
V
20 °C 10 km+ 4.300 ft 210° 210° 7 kt METAR ZPPP 131600Z 21004MPS 9999 SCT020 BKN043 20/17 Q1016 NOSIG

13 lipca 2024

Czas Kod Pogoda Temp. Widoczność Sufit Wiatr METAR/SPECI
23:00
V
21 °C 10 km+ 4.300 ft 200° 200° 9 kt METAR ZPPP 131500Z 20005MPS 9999 SCT020 BKN043 21/17 Q1015 NOSIG
22:00
V
21 °C 10 km+ 4.300 ft 190° 190° 7 kt METAR ZPPP 131400Z 19004MPS 150V210 9999 SCT023 BKN043 21/17 Q1015 NOSIG
21:00
V
22 °C 10 km+ 4.300 ft 180° 180° 7 kt METAR ZPPP 131300Z 18004MPS 140V220 9999 SCT023 BKN043 22/17 Q1014 NOSIG
20:00
V
23 °C 10 km+ 4.300 ft 210° 210° 11 kt METAR ZPPP 131200Z 21006MPS 9999 FEW023TCU SCT023 BKN043 23/17 Q1013 NOSIG
19:00
V
23 °C 10 km+ - 210° 210° 9 kt METAR ZPPP 131100Z 21005MPS 180V240 9999 FEW023TCU SCT023 23/16 Q1012 NOSIG
18:00
V
24 °C 10 km+ - 230° 230° 11 kt METAR ZPPP 131000Z 23006MPS 9999 FEW023TCU SCT023 24/16 Q1012 NOSIG
17:00
V
23 °C 10 km+ - 240° 240° 11 kt METAR ZPPP 130900Z 24006MPS 9999 FEW023TCU SCT023 23/17 Q1012 NOSIG
16:00
V
23 °C 10 km+ 3.600 ft 240° 240° 13 kt METAR ZPPP 130800Z 24007MPS 9999 FEW023TCU SCT023 BKN036 23/17 Q1013 NOSIG
15:00
V
24 °C 10 km+ 3.600 ft 240° 240° 13 kt METAR ZPPP 130700Z 24007MPS 9999 FEW023TCU SCT023 BKN036 24/17 Q1013 NOSIG
14:00
V
24 °C 10 km+ 3.600 ft 200° 200° 13 kt METAR ZPPP 130600Z 20007MPS 9999 FEW023TCU SCT023 BKN036 24/17 Q1014 NOSIG
Zgłoś zmianę